createdAt,value
2023-10-11T00:01:07.748Z,16
2023-10-11T00:02:22.040Z,16
2023-10-11T00:03:36.333Z,15.9
2023-10-11T00:04:50.625Z,15.9
2023-10-11T00:06:04.918Z,15.9
2023-10-11T00:07:19.211Z,15.9
2023-10-11T00:08:33.504Z,15.9
2023-10-11T00:09:47.797Z,15.9
2023-10-11T00:11:02.090Z,15.9
2023-10-11T00:12:16.382Z,15.9
2023-10-11T00:13:30.675Z,15.9
2023-10-11T00:14:44.967Z,15.8
2023-10-11T00:15:59.260Z,15.8
2023-10-11T00:17:12.568Z,15.8
2023-10-11T00:18:26.861Z,15.7
2023-10-11T00:19:41.154Z,15.7
2023-10-11T00:20:55.446Z,15.7
2023-10-11T00:22:09.739Z,15.8
2023-10-11T00:23:24.032Z,15.8
2023-10-11T00:24:38.324Z,15.9
2023-10-11T00:25:52.617Z,15.9
2023-10-11T00:27:06.909Z,15.9
2023-10-11T00:28:21.202Z,15.9
2023-10-11T00:29:35.494Z,15.9
2023-10-11T00:30:49.787Z,15.9
2023-10-11T00:32:04.080Z,15.8
2023-10-11T00:33:17.389Z,15.8
2023-10-11T00:34:31.681Z,15.8
2023-10-11T00:35:45.974Z,15.8
2023-10-11T00:37:00.266Z,15.7
2023-10-11T00:38:14.559Z,15.8
2023-10-11T00:39:28.851Z,15.8
2023-10-11T00:40:43.144Z,15.8
2023-10-11T00:41:57.436Z,15.8
2023-10-11T00:43:11.729Z,15.9
2023-10-11T00:44:26.022Z,15.9
2023-10-11T00:45:40.314Z,15.9
2023-10-11T00:46:54.607Z,15.9
2023-10-11T00:48:08.899Z,15.9
2023-10-11T00:49:22.208Z,15.9
2023-10-11T00:50:36.501Z,15.9
2023-10-11T00:51:50.793Z,15.9
2023-10-11T00:53:05.086Z,15.9
2023-10-11T00:54:19.379Z,15.8
2023-10-11T00:55:33.671Z,15.8
2023-10-11T00:56:47.964Z,15.8
2023-10-11T00:58:02.256Z,15.7
2023-10-11T00:59:16.549Z,15.7
2023-10-11T01:00:30.842Z,15.6
2023-10-11T01:01:45.134Z,15.6
2023-10-11T01:02:59.427Z,15.5
2023-10-11T01:04:13.720Z,15.6
2023-10-11T01:05:27.028Z,15.6
2023-10-11T01:06:41.321Z,15.6
2023-10-11T01:07:55.613Z,15.5
2023-10-11T01:09:09.906Z,15.5
2023-10-11T01:10:24.199Z,15.5
2023-10-11T01:11:38.491Z,15.5
2023-10-11T01:12:52.784Z,15.4
2023-10-11T01:14:07.076Z,15.4
2023-10-11T01:15:21.369Z,15.4
2023-10-11T01:16:35.662Z,15.5
2023-10-11T01:17:49.954Z,15.5
2023-10-11T01:19:04.247Z,15.5
2023-10-11T01:20:18.539Z,15.5
2023-10-11T01:21:31.848Z,15.5
2023-10-11T01:22:46.141Z,15.5
2023-10-11T01:24:00.433Z,15.5
2023-10-11T01:25:14.726Z,15.5
2023-10-11T01:26:29.019Z,15.5
2023-10-11T01:27:43.311Z,15.5
2023-10-11T01:28:57.605Z,15.5
2023-10-11T01:30:11.897Z,15.5
2023-10-11T01:31:26.190Z,15.5
2023-10-11T01:32:40.482Z,15.6
2023-10-11T01:33:54.775Z,15.6
2023-10-11T01:35:09.068Z,15.5
2023-10-11T01:36:23.361Z,15.5
2023-10-11T01:37:36.669Z,15.5
2023-10-11T01:38:50.962Z,15.5
2023-10-11T01:40:05.254Z,15.5
2023-10-11T01:41:19.547Z,15.5
2023-10-11T01:42:33.839Z,15.5
2023-10-11T01:43:48.132Z,15.5
2023-10-11T01:45:02.395Z,15.4
2023-10-11T01:46:16.717Z,15.4
2023-10-11T01:47:30.987Z,15.4
2023-10-11T01:48:45.303Z,15.4
2023-10-11T01:49:59.595Z,15.4
2023-10-11T01:51:13.888Z,15.4
2023-10-11T01:52:28.180Z,15.4
2023-10-11T01:53:41.489Z,15.4
2023-10-11T01:54:55.781Z,15.4
2023-10-11T01:56:10.075Z,15.4
2023-10-11T01:57:24.368Z,15.4
2023-10-11T01:58:38.661Z,15.4
2023-10-11T01:59:52.953Z,15.4
2023-10-11T02:01:07.246Z,15.4
2023-10-11T02:02:21.538Z,15.4
2023-10-11T02:03:35.831Z,15.3
2023-10-11T02:04:50.123Z,15.3
2023-10-11T02:06:04.416Z,15.3
2023-10-11T02:07:18.708Z,15.3
2023-10-11T02:08:33.001Z,15.2
2023-10-11T02:09:46.310Z,15.2
2023-10-11T02:11:00.603Z,15.2
2023-10-11T02:12:14.895Z,15.2
2023-10-11T02:13:29.188Z,15.1
2023-10-11T02:14:43.480Z,15.1
2023-10-11T02:15:57.773Z,15.1
2023-10-11T02:17:12.065Z,15.1
2023-10-11T02:18:26.358Z,15
2023-10-11T02:19:40.651Z,15
2023-10-11T02:20:54.944Z,15.1
2023-10-11T02:22:09.236Z,15
2023-10-11T02:23:23.529Z,15
2023-10-11T02:24:37.821Z,15
2023-10-11T02:25:51.130Z,14.9
2023-10-11T02:27:05.423Z,14.9
2023-10-11T02:28:19.715Z,14.9
2023-10-11T02:29:34.008Z,14.9
2023-10-11T02:30:48.301Z,14.9
2023-10-11T02:32:02.593Z,14.9
2023-10-11T02:33:15.907Z,14.9
2023-10-11T02:34:30.200Z,14.9
2023-10-11T02:35:44.492Z,14.9
2023-10-11T02:36:58.785Z,14.9
2023-10-11T02:38:13.077Z,14.9
2023-10-11T02:39:27.370Z,14.9
2023-10-11T02:40:41.662Z,14.8
2023-10-11T02:41:55.955Z,14.8
2023-10-11T02:43:10.248Z,14.8
2023-10-11T02:44:24.541Z,14.8
2023-10-11T02:45:38.833Z,14.8
2023-10-11T02:46:53.126Z,14.8
2023-10-11T02:48:07.418Z,14.7
2023-10-11T02:49:20.727Z,14.7
2023-10-11T02:50:35.020Z,14.7
2023-10-11T02:51:49.312Z,14.6
2023-10-11T02:53:03.605Z,14.6
2023-10-11T02:54:17.898Z,14.6
2023-10-11T02:55:32.190Z,14.6
2023-10-11T02:56:46.483Z,14.6
2023-10-11T02:58:00.776Z,14.5
2023-10-11T02:59:15.044Z,14.5
2023-10-11T03:00:29.362Z,14.4
2023-10-11T03:01:43.654Z,14.4
2023-10-11T03:02:57.947Z,14.4
2023-10-11T03:04:12.240Z,14.3
2023-10-11T03:05:25.548Z,14.3
2023-10-11T03:06:39.841Z,14.3
2023-10-11T03:07:54.134Z,14.2
2023-10-11T03:09:08.426Z,14.2
2023-10-11T03:10:22.719Z,14.1
2023-10-11T03:11:37.011Z,14.2
2023-10-11T03:12:51.304Z,14.1
2023-10-11T03:14:05.597Z,14.2
2023-10-11T03:15:19.889Z,14.2
2023-10-11T03:16:34.182Z,14.2
2023-10-11T03:17:48.475Z,14.2
2023-10-11T03:19:02.767Z,14.2
2023-10-11T03:20:17.060Z,14.2
2023-10-11T03:21:30.369Z,14.2
2023-10-11T03:22:44.661Z,14.3
2023-10-11T03:23:58.954Z,14.3
2023-10-11T03:25:13.247Z,14.3
2023-10-11T03:26:27.539Z,14.3
2023-10-11T03:27:41.832Z,14.3
2023-10-11T03:28:56.124Z,14.3
2023-10-11T03:30:10.417Z,14.3
2023-10-11T03:31:24.709Z,14.3
2023-10-11T03:32:39.002Z,14.3
2023-10-11T03:33:53.294Z,14.3
2023-10-11T03:35:07.587Z,14.3
2023-10-11T03:36:21.880Z,14.3
2023-10-11T03:37:35.189Z,14.3
2023-10-11T03:38:49.481Z,14.3
2023-10-11T03:40:03.774Z,14.3
2023-10-11T03:41:18.066Z,14.3
2023-10-11T03:42:32.359Z,14.3
2023-10-11T03:43:46.651Z,14.3
2023-10-11T03:45:00.944Z,14.2
2023-10-11T03:46:15.237Z,14.2
2023-10-11T03:47:29.529Z,14.3
2023-10-11T03:48:43.822Z,14.3
2023-10-11T03:49:58.115Z,14.3
2023-10-11T03:51:12.407Z,14.2
2023-10-11T03:52:26.700Z,14.2
2023-10-11T03:53:40.008Z,14.2
2023-10-11T03:54:54.301Z,14.3
2023-10-11T03:56:08.594Z,14.3
2023-10-11T03:57:22.886Z,14.3
2023-10-11T03:58:37.179Z,14.3
2023-10-11T03:59:51.472Z,14.3
2023-10-11T04:01:05.764Z,14.3
2023-10-11T04:02:20.057Z,14.3
2023-10-11T04:03:34.349Z,14.3
2023-10-11T04:04:48.642Z,14.3
2023-10-11T04:06:02.934Z,14.3
2023-10-11T04:07:17.227Z,14.3
2023-10-11T04:08:31.520Z,14.3
2023-10-11T04:09:44.829Z,14.3
2023-10-11T04:10:59.121Z,14.3
2023-10-11T04:12:13.414Z,14.3
2023-10-11T04:13:27.706Z,14.3
2023-10-11T04:14:41.999Z,14.3
2023-10-11T04:15:56.292Z,14.3
2023-10-11T04:17:10.584Z,14.3
2023-10-11T04:18:24.877Z,14.3
2023-10-11T04:19:39.170Z,14.3
2023-10-11T04:20:53.462Z,14.3
2023-10-11T04:22:07.755Z,14.3
2023-10-11T04:23:22.047Z,14.3
2023-10-11T04:24:36.321Z,14.4
2023-10-11T04:25:49.649Z,14.4
2023-10-11T04:27:03.941Z,14.4
2023-10-11T04:28:18.234Z,14.5
2023-10-11T04:29:32.527Z,14.4
2023-10-11T04:30:46.819Z,14.5
2023-10-11T04:32:01.112Z,14.5
2023-10-11T04:33:15.404Z,14.5
2023-10-11T04:34:29.697Z,14.6
2023-10-11T04:35:43.989Z,14.7
2023-10-11T04:36:58.282Z,14.7
2023-10-11T04:38:12.575Z,14.7
2023-10-11T04:39:26.853Z,14.7
2023-10-11T04:40:41.160Z,14.8
2023-10-11T04:41:54.469Z,14.7
2023-10-11T04:43:08.761Z,14.8
2023-10-11T04:44:23.054Z,14.8
2023-10-11T04:45:37.347Z,14.7
2023-10-11T04:46:51.619Z,14.7
2023-10-11T04:48:05.932Z,14.7
2023-10-11T04:49:20.224Z,14.8
2023-10-11T04:50:34.517Z,14.8
2023-10-11T04:51:48.810Z,14.8
2023-10-11T04:53:03.102Z,14.8
2023-10-11T04:54:17.376Z,14.8
2023-10-11T04:55:31.688Z,14.8
2023-10-11T04:56:45.927Z,14.8
2023-10-11T04:57:59.236Z,14.8
2023-10-11T04:59:13.528Z,14.8
2023-10-11T05:00:27.778Z,14.8
2023-10-11T05:01:42.002Z,14.8
2023-10-11T05:02:56.255Z,14.8
2023-10-11T05:04:10.494Z,14.8
2023-10-11T05:05:24.733Z,14.9
2023-10-11T05:06:38.971Z,14.9
2023-10-11T05:07:53.210Z,14.9
2023-10-11T05:09:07.424Z,15
2023-10-11T05:10:21.687Z,15
2023-10-11T05:11:35.926Z,14.9
2023-10-11T05:12:50.165Z,15
2023-10-11T05:14:03.419Z,15
2023-10-11T05:15:17.658Z,15
2023-10-11T05:16:31.897Z,15.1
2023-10-11T05:17:46.135Z,15.1
2023-10-11T05:19:00.375Z,15.2
2023-10-11T05:20:14.614Z,15.2
2023-10-11T05:21:28.852Z,15.2
2023-10-11T05:22:43.091Z,15.3
2023-10-11T05:23:57.330Z,15.3
2023-10-11T05:25:11.568Z,15.4
2023-10-11T05:26:25.807Z,15.5
2023-10-11T05:27:40.045Z,15.5
2023-10-11T05:28:54.284Z,15.6
2023-10-11T05:30:07.539Z,15.7
2023-10-11T05:31:21.753Z,15.7
2023-10-11T05:32:36.016Z,15.8
2023-10-11T05:33:50.255Z,15.9
2023-10-11T05:35:04.494Z,15.9
2023-10-11T05:36:18.732Z,15.9
2023-10-11T05:37:32.971Z,16
2023-10-11T05:38:47.210Z,16
2023-10-11T05:40:01.448Z,16
2023-10-11T05:41:15.687Z,16
2023-10-11T05:42:29.926Z,16
2023-10-11T05:43:44.164Z,16
2023-10-11T05:44:58.403Z,16
2023-10-11T05:46:11.658Z,16
2023-10-11T05:47:25.896Z,16
2023-10-11T05:48:40.135Z,16
2023-10-11T05:49:54.374Z,16
2023-10-11T05:51:08.612Z,15.9
2023-10-11T05:52:22.851Z,15.9
2023-10-11T05:53:37.089Z,15.9
2023-10-11T05:54:51.328Z,15.9
2023-10-11T05:56:05.567Z,15.9
2023-10-11T05:57:19.806Z,15.9
2023-10-11T05:58:34.044Z,15.9
2023-10-11T05:59:48.283Z,15.9
2023-10-11T06:01:02.521Z,15.9
2023-10-11T06:02:15.776Z,15.9
2023-10-11T06:03:30.015Z,16
2023-10-11T06:04:44.253Z,16
2023-10-11T06:05:58.492Z,16
2023-10-11T06:07:12.731Z,16
2023-10-11T06:08:26.970Z,16.1
2023-10-11T06:09:41.208Z,16.1
2023-10-11T06:10:55.447Z,16.1
2023-10-11T06:12:09.686Z,16.1
2023-10-11T06:13:23.924Z,16.1
2023-10-11T06:14:38.163Z,16.1
2023-10-11T06:15:52.402Z,16.1
2023-10-11T06:17:06.640Z,16
2023-10-11T06:18:19.895Z,16.1
2023-10-11T06:19:34.135Z,16
2023-10-11T06:20:48.373Z,16.1
2023-10-11T06:22:02.612Z,16
2023-10-11T06:23:16.850Z,16
2023-10-11T06:24:31.089Z,16
2023-10-11T06:25:45.328Z,16
2023-10-11T06:26:59.567Z,16
2023-10-11T06:28:13.805Z,16
2023-10-11T06:29:28.044Z,16
2023-10-11T06:30:42.283Z,16
2023-10-11T06:31:56.522Z,16
2023-10-11T06:33:10.761Z,16
2023-10-11T06:34:24.015Z,16
2023-10-11T06:35:38.254Z,16
2023-10-11T06:36:52.492Z,16
2023-10-11T06:38:06.731Z,16
2023-10-11T06:39:20.970Z,16
2023-10-11T06:40:35.209Z,16.1
2023-10-11T06:41:48.469Z,16.1
2023-10-11T06:43:02.707Z,16.1
2023-10-11T06:44:16.946Z,16.2
2023-10-11T06:45:31.184Z,16.2
2023-10-11T06:46:45.423Z,16.3
2023-10-11T06:47:59.661Z,16.3
2023-10-11T06:49:13.900Z,16.3
2023-10-11T06:50:28.139Z,16.4
2023-10-11T06:51:42.378Z,16.5
2023-10-11T06:52:56.616Z,16.5
2023-10-11T06:54:10.855Z,16.7
2023-10-11T06:55:25.093Z,16.8
2023-10-11T06:56:39.332Z,16.9
2023-10-11T06:57:52.586Z,17
2023-10-11T06:59:06.825Z,17.1
2023-10-11T07:00:21.064Z,17.2
2023-10-11T07:01:35.302Z,17.4
2023-10-11T07:02:49.541Z,17.5
2023-10-11T07:04:03.780Z,17.6
2023-10-11T07:05:18.018Z,17.6
2023-10-11T07:06:32.257Z,17.7
2023-10-11T07:07:46.495Z,17.8
2023-10-11T07:09:00.734Z,17.9
2023-10-11T07:10:14.972Z,18
2023-10-11T07:11:29.211Z,18.1
2023-10-11T07:12:43.449Z,18.3
2023-10-11T07:13:56.704Z,18.4
2023-10-11T07:15:10.943Z,18.5
2023-10-11T07:16:25.181Z,18.6
2023-10-11T07:17:39.420Z,18.7
2023-10-11T07:18:53.658Z,18.7
2023-10-11T07:20:07.897Z,18.7
2023-10-11T07:21:22.136Z,18.7
2023-10-11T07:22:36.374Z,18.7
2023-10-11T07:23:50.613Z,18.8
2023-10-11T07:25:04.851Z,18.8
2023-10-11T07:26:19.090Z,18.8
2023-10-11T07:27:33.328Z,18.8
2023-10-11T07:28:47.567Z,18.8
2023-10-11T07:30:00.822Z,18.9
2023-10-11T07:31:15.060Z,18.9
2023-10-11T07:32:29.299Z,19
2023-10-11T07:33:43.538Z,18.9
2023-10-11T07:34:57.776Z,19
2023-10-11T07:36:12.015Z,19
2023-10-11T07:37:26.253Z,19.1
2023-10-11T07:38:40.492Z,19.1
2023-10-11T07:39:54.730Z,19.2
2023-10-11T07:41:08.969Z,19.2
2023-10-11T07:42:23.208Z,19.2
2023-10-11T07:43:37.446Z,19.3
2023-10-11T07:44:51.685Z,19.3
2023-10-11T07:46:04.939Z,19.4
2023-10-11T07:47:19.178Z,19.4
2023-10-11T07:48:33.417Z,19.5
2023-10-11T07:49:47.655Z,19.5
2023-10-11T07:51:01.894Z,19.5
2023-10-11T07:52:16.132Z,19.6
2023-10-11T07:53:30.371Z,19.7
2023-10-11T07:54:44.610Z,19.8
2023-10-11T07:55:58.848Z,19.8
2023-10-11T07:57:13.087Z,19.8
2023-10-11T07:58:27.325Z,19.8
2023-10-11T07:59:41.564Z,19.8
2023-10-11T08:00:55.802Z,19.8
2023-10-11T08:02:09.057Z,19.8
2023-10-11T08:03:23.296Z,19.8
2023-10-11T08:04:37.534Z,19.8
2023-10-11T08:05:51.773Z,19.8
2023-10-11T08:07:06.012Z,19.9
2023-10-11T08:08:20.250Z,19.9
2023-10-11T08:09:34.489Z,20
2023-10-11T08:10:48.727Z,20
2023-10-11T08:12:02.966Z,20.1
2023-10-11T08:13:17.204Z,20.2
2023-10-11T08:14:31.443Z,20.3
2023-10-11T08:15:45.683Z,20.3
2023-10-11T08:16:59.921Z,20.4
2023-10-11T08:18:13.176Z,20.5
2023-10-11T08:19:27.414Z,20.5
2023-10-11T08:20:41.653Z,20.5
2023-10-11T08:21:55.891Z,20.6
2023-10-11T08:23:10.130Z,20.6
2023-10-11T08:24:24.368Z,20.7
2023-10-11T08:25:38.607Z,20.8
2023-10-11T08:26:52.846Z,20.8
2023-10-11T08:28:07.084Z,20.8
2023-10-11T08:29:21.323Z,20.9
2023-10-11T08:30:35.561Z,21
2023-10-11T08:31:49.800Z,21
2023-10-11T08:33:04.038Z,21.1
2023-10-11T08:34:17.293Z,21.2
2023-10-11T08:35:31.531Z,21.2
2023-10-11T08:36:45.770Z,21.3
2023-10-11T08:38:00.009Z,21.4
2023-10-11T08:39:14.247Z,21.6
2023-10-11T08:40:28.486Z,21.6
2023-10-11T08:41:42.724Z,21.7
2023-10-11T08:42:56.963Z,21.7
2023-10-11T08:44:11.201Z,21.7
2023-10-11T08:45:25.440Z,21.8
2023-10-11T08:46:39.679Z,21.9
2023-10-11T08:47:53.917Z,22
2023-10-11T08:49:08.156Z,22
2023-10-11T08:50:21.411Z,22.1
2023-10-11T08:51:35.649Z,22.1
2023-10-11T08:52:49.888Z,22.3
2023-10-11T08:54:04.126Z,22.3
2023-10-11T08:55:18.365Z,22.4
2023-10-11T08:56:32.605Z,22.4
2023-10-11T08:57:46.844Z,22.5
2023-10-11T08:59:01.082Z,22.6
2023-10-11T09:00:15.321Z,22.7
2023-10-11T09:01:29.559Z,22.7
2023-10-11T09:02:43.798Z,22.7
2023-10-11T09:03:58.036Z,22.8
2023-10-11T09:05:12.275Z,22.8
2023-10-11T09:06:25.530Z,22.8
2023-10-11T09:07:39.768Z,22.8
2023-10-11T09:08:54.007Z,22.7
2023-10-11T09:10:08.246Z,22.8
2023-10-11T09:11:22.485Z,22.8
2023-10-11T09:12:36.723Z,22.9
2023-10-11T09:13:50.962Z,22.9
2023-10-11T09:15:05.200Z,22.9
2023-10-11T09:16:19.439Z,22.9
2023-10-11T09:17:33.677Z,22.9
2023-10-11T09:18:47.916Z,22.9
2023-10-11T09:20:02.155Z,22.8
2023-10-11T09:21:16.381Z,22.9
2023-10-11T09:22:29.648Z,22.9
2023-10-11T09:23:43.886Z,23
2023-10-11T09:24:58.125Z,23.1
2023-10-11T09:26:12.363Z,23.2
2023-10-11T09:27:26.602Z,23.1
2023-10-11T09:28:40.840Z,23.1
2023-10-11T09:29:55.079Z,23.1
2023-10-11T09:31:09.317Z,23.1
2023-10-11T09:32:23.556Z,23.1
2023-10-11T09:33:37.794Z,23.1
2023-10-11T09:34:52.033Z,23.1
2023-10-11T09:36:06.271Z,23.1
2023-10-11T09:37:20.510Z,23.1
2023-10-11T09:38:33.764Z,23.1
2023-10-11T09:39:48.003Z,23.2
2023-10-11T09:41:02.241Z,23.3
2023-10-11T09:42:16.464Z,23.4
2023-10-11T09:43:30.718Z,23.4
2023-10-11T09:44:44.958Z,23.5
2023-10-11T09:45:59.196Z,23.5
2023-10-11T09:47:13.435Z,23.4
2023-10-11T09:48:27.673Z,23.4
2023-10-11T09:49:41.912Z,23.3
2023-10-11T09:50:56.150Z,23.3
2023-10-11T09:52:10.389Z,23.2
2023-10-11T09:53:24.627Z,23.2
2023-10-11T09:54:37.882Z,23.2
2023-10-11T09:55:52.120Z,23.2
2023-10-11T09:57:06.359Z,23.3
2023-10-11T09:58:20.597Z,23.4
2023-10-11T09:59:34.836Z,23.5
2023-10-11T10:00:49.074Z,23.5
2023-10-11T10:02:03.313Z,23.5
2023-10-11T10:03:17.552Z,23.6
2023-10-11T10:04:31.790Z,23.6
2023-10-11T10:05:46.029Z,23.6
2023-10-11T10:07:00.267Z,23.6
2023-10-11T10:08:14.506Z,23.6
2023-10-11T10:09:28.744Z,23.6
2023-10-11T10:10:41.999Z,23.7
2023-10-11T10:11:56.237Z,23.8
2023-10-11T10:13:10.476Z,23.8
2023-10-11T10:14:24.715Z,23.8
2023-10-11T10:15:38.953Z,23.9
2023-10-11T10:16:53.192Z,23.9
2023-10-11T10:18:07.430Z,24
2023-10-11T10:19:21.669Z,23.9
2023-10-11T10:20:35.907Z,23.9
2023-10-11T10:21:50.146Z,23.9
2023-10-11T10:23:04.384Z,23.9
2023-10-11T10:24:18.623Z,23.9
2023-10-11T10:25:32.862Z,24
2023-10-11T10:26:46.116Z,24
2023-10-11T10:28:00.356Z,24.1
2023-10-11T10:29:14.594Z,24.1
2023-10-11T10:30:28.833Z,24.2
2023-10-11T10:31:43.071Z,24.1
2023-10-11T10:32:57.310Z,24.1
2023-10-11T10:34:11.549Z,24.1
2023-10-11T10:35:25.787Z,24.2
2023-10-11T10:36:40.026Z,24.3
2023-10-11T10:37:54.264Z,24.3
2023-10-11T10:39:08.503Z,24.3
2023-10-11T10:40:22.742Z,24.4
2023-10-11T10:41:36.980Z,24.4
2023-10-11T10:42:50.235Z,24.5
2023-10-11T10:44:04.473Z,24.5
2023-10-11T10:45:18.712Z,24.5
2023-10-11T10:46:32.951Z,24.4
2023-10-11T10:47:47.189Z,24.5
2023-10-11T10:49:01.428Z,24.6
2023-10-11T10:50:14.688Z,24.6
2023-10-11T10:51:28.926Z,24.6
2023-10-11T10:52:43.165Z,24.7
2023-10-11T10:53:57.403Z,24.8
2023-10-11T10:55:11.642Z,24.9
2023-10-11T10:56:25.881Z,24.9
2023-10-11T10:57:40.119Z,24.9
2023-10-11T10:58:54.358Z,25
2023-10-11T11:00:08.597Z,25.1
2023-10-11T11:01:22.835Z,25.1
2023-10-11T11:02:37.074Z,25.2
2023-10-11T11:03:51.312Z,25.3
2023-10-11T11:05:05.551Z,25.3
2023-10-11T11:06:18.805Z,25.4
2023-10-11T11:07:33.044Z,25.4
2023-10-11T11:08:47.283Z,25.5
2023-10-11T11:10:01.521Z,25.5
2023-10-11T11:11:15.760Z,25.6
2023-10-11T11:12:29.998Z,25.6
2023-10-11T11:13:44.237Z,25.7
2023-10-11T11:14:58.475Z,25.7
2023-10-11T11:16:12.714Z,25.7
2023-10-11T11:17:26.953Z,25.7
2023-10-11T11:18:41.191Z,25.7
2023-10-11T11:19:55.414Z,25.8
2023-10-11T11:21:09.668Z,25.8
2023-10-11T11:22:22.923Z,25.8
2023-10-11T11:23:37.162Z,25.9
2023-10-11T11:24:51.400Z,25.9
2023-10-11T11:26:05.639Z,25.9
2023-10-11T11:27:19.878Z,25.8
2023-10-11T11:28:34.117Z,25.8
2023-10-11T11:29:48.355Z,25.8
2023-10-11T11:31:02.594Z,25.9
2023-10-11T11:32:16.832Z,25.9
2023-10-11T11:33:31.071Z,25.9
2023-10-11T11:34:45.310Z,25.9
2023-10-11T11:35:59.548Z,25.9
2023-10-11T11:37:13.787Z,25.9
2023-10-11T11:38:27.042Z,25.9
2023-10-11T11:39:41.281Z,25.9
2023-10-11T11:40:55.519Z,25.8
2023-10-11T11:42:09.758Z,25.8
2023-10-11T11:43:23.996Z,25.8
2023-10-11T11:44:38.235Z,25.7
2023-10-11T11:45:52.473Z,25.8
2023-10-11T11:47:06.712Z,25.8
2023-10-11T11:48:20.951Z,25.8
2023-10-11T11:49:35.189Z,25.9
2023-10-11T11:50:49.428Z,25.9
2023-10-11T11:52:03.666Z,26
2023-10-11T11:53:17.905Z,26
2023-10-11T11:54:31.160Z,26
2023-10-11T11:55:45.398Z,26
2023-10-11T11:56:59.637Z,25.9
2023-10-11T11:58:13.876Z,26
2023-10-11T11:59:28.114Z,26
2023-10-11T12:00:42.353Z,26
2023-10-11T12:01:56.592Z,26
2023-10-11T12:03:10.830Z,26.1
2023-10-11T12:04:25.051Z,26.2
2023-10-11T12:05:39.308Z,26.2
2023-10-11T12:06:53.546Z,26.2
2023-10-11T12:08:07.785Z,26.3
2023-10-11T12:09:22.024Z,26.4
2023-10-11T12:10:35.278Z,26.3
2023-10-11T12:11:49.517Z,26.3
2023-10-11T12:13:03.756Z,26.3
2023-10-11T12:14:17.994Z,26.3
2023-10-11T12:15:32.233Z,26.3
2023-10-11T12:16:46.472Z,26.4
2023-10-11T12:18:00.711Z,26.4
2023-10-11T12:20:29.188Z,26.3
2023-10-11T12:21:43.409Z,26.3
2023-10-11T12:22:57.666Z,26.3
2023-10-11T12:24:11.905Z,26.3
2023-10-11T12:25:26.143Z,26.3
2023-10-11T12:26:39.398Z,26.4
2023-10-11T12:27:53.636Z,26.3
2023-10-11T12:29:07.875Z,26.3
2023-10-11T12:30:22.113Z,26.2
2023-10-11T12:31:36.352Z,26.2
2023-10-11T12:32:50.591Z,26.2
2023-10-11T12:34:04.829Z,26.2
2023-10-11T12:35:19.068Z,26.1
2023-10-11T12:36:33.306Z,26.2
2023-10-11T12:37:47.545Z,26.2
2023-10-11T12:39:01.784Z,26.2
2023-10-11T12:40:16.022Z,26.2
2023-10-11T12:41:30.261Z,26.2
2023-10-11T12:42:43.515Z,26.2
2023-10-11T12:43:57.754Z,26.2
2023-10-11T12:45:11.993Z,26.2
2023-10-11T12:46:26.231Z,26.2
2023-10-11T12:47:40.470Z,26.2
2023-10-11T12:48:54.708Z,26.1
2023-10-11T12:50:08.947Z,26.2
2023-10-11T12:51:23.186Z,26.2
2023-10-11T12:52:37.424Z,26.2
2023-10-11T12:53:51.663Z,26.2
2023-10-11T12:55:05.902Z,26.3
2023-10-11T12:56:20.140Z,26.2
2023-10-11T12:57:34.379Z,26.2
2023-10-11T12:58:47.633Z,26.2
2023-10-11T13:00:01.872Z,26.2
2023-10-11T13:01:16.110Z,26.2
2023-10-11T13:02:30.349Z,26.2
2023-10-11T13:03:44.589Z,26.2
2023-10-11T13:04:58.827Z,26.3
2023-10-11T13:06:13.066Z,26.3
2023-10-11T13:07:27.304Z,26.3
2023-10-11T13:08:41.543Z,26.3
2023-10-11T13:09:55.782Z,26.3
2023-10-11T13:11:10.020Z,26.4
2023-10-11T13:12:24.259Z,26.4
2023-10-11T13:13:38.497Z,26.4
2023-10-11T13:14:51.752Z,26.4
2023-10-11T13:16:05.991Z,26.3
2023-10-11T13:17:20.229Z,26.3
2023-10-11T13:18:34.468Z,26.3
2023-10-11T13:19:48.707Z,26.1
2023-10-11T13:21:02.945Z,26.1
2023-10-11T13:22:17.184Z,26.1
2023-10-11T13:23:31.422Z,26
2023-10-11T13:24:45.661Z,25.9
2023-10-11T13:25:59.900Z,25.9
2023-10-11T13:27:14.138Z,25.8
2023-10-11T13:28:28.377Z,25.7
2023-10-11T13:29:42.615Z,25.6
2023-10-11T13:30:55.870Z,25.6
2023-10-11T13:32:10.110Z,25.6
2023-10-11T13:33:24.348Z,25.6
2023-10-11T13:34:38.587Z,25.5
2023-10-11T13:35:52.825Z,25.5
2023-10-11T13:37:07.040Z,25.4
2023-10-11T13:38:21.303Z,25.3
2023-10-11T13:39:35.541Z,25.4
2023-10-11T13:40:49.780Z,25.3
2023-10-11T13:42:04.018Z,25.3
2023-10-11T13:43:18.257Z,25.2
2023-10-11T13:44:32.496Z,25.2
2023-10-11T13:45:46.734Z,25.2
2023-10-11T13:46:59.989Z,25.2
2023-10-11T13:48:14.228Z,25.2
2023-10-11T13:49:28.466Z,25.2
2023-10-11T13:50:42.705Z,25.2
2023-10-11T13:51:56.944Z,25.2
2023-10-11T13:53:11.182Z,25.3
2023-10-11T13:54:25.421Z,25.2
2023-10-11T13:55:39.659Z,25.2
2023-10-11T13:56:53.898Z,25.2
2023-10-11T13:58:08.137Z,25.2
2023-10-11T13:59:22.375Z,25.1
2023-10-11T14:00:36.615Z,25.1
2023-10-11T14:01:50.853Z,25.1
2023-10-11T14:03:04.108Z,25
2023-10-11T14:04:18.347Z,25
2023-10-11T14:05:32.585Z,25
2023-10-11T14:06:46.824Z,24.9
2023-10-11T14:08:01.062Z,25
2023-10-11T14:09:15.301Z,25
2023-10-11T14:10:29.540Z,25
2023-10-11T14:11:43.779Z,24.9
2023-10-11T14:12:58.017Z,24.9
2023-10-11T14:14:12.228Z,24.8
2023-10-11T14:15:26.494Z,24.8
2023-10-11T14:16:40.707Z,24.8
2023-10-11T14:17:54.971Z,24.8
2023-10-11T14:19:08.226Z,24.7
2023-10-11T14:20:22.465Z,24.7
2023-10-11T14:21:36.704Z,24.7
2023-10-11T14:22:50.942Z,24.6
2023-10-11T14:24:05.181Z,24.6
2023-10-11T14:25:19.420Z,24.5
2023-10-11T14:26:33.658Z,24.5
2023-10-11T14:27:47.897Z,24.5
2023-10-11T14:29:02.135Z,24.4
2023-10-11T14:30:16.374Z,24.4
2023-10-11T14:31:30.613Z,24.4
2023-10-11T14:32:44.851Z,24.3
2023-10-11T14:33:59.090Z,24.3
2023-10-11T14:35:12.345Z,24.3
2023-10-11T14:36:26.583Z,24.2
2023-10-11T14:37:40.822Z,24.2
2023-10-11T14:38:55.060Z,24.2
2023-10-11T14:40:09.299Z,24.1
2023-10-11T14:41:23.538Z,24.1
2023-10-11T14:42:37.777Z,24.1
2023-10-11T14:43:52.015Z,24.1
2023-10-11T14:45:06.254Z,24.1
2023-10-11T14:46:20.492Z,24.1
2023-10-11T14:47:34.731Z,24
2023-10-11T14:48:48.970Z,24
2023-10-11T14:50:03.209Z,24
2023-10-11T14:51:16.464Z,24
2023-10-11T14:52:30.703Z,23.9
2023-10-11T14:53:44.941Z,23.9
2023-10-11T14:54:59.180Z,23.9
2023-10-11T14:56:13.418Z,23.9
2023-10-11T14:57:27.657Z,23.8
2023-10-11T14:58:40.917Z,23.8
2023-10-11T14:59:55.155Z,23.8
2023-10-11T15:01:09.394Z,23.8
2023-10-11T15:02:23.632Z,23.8
2023-10-11T15:03:37.871Z,23.7
2023-10-11T15:04:52.110Z,23.7
2023-10-11T15:06:06.348Z,23.7
2023-10-11T15:07:20.587Z,23.7
2023-10-11T15:08:34.825Z,23.6
2023-10-11T15:09:49.064Z,23.6
2023-10-11T15:11:03.302Z,23.6
2023-10-11T15:12:17.541Z,23.6
2023-10-11T15:13:31.780Z,23.6
2023-10-11T15:14:45.034Z,23.6
2023-10-11T15:15:59.273Z,23.5
2023-10-11T15:17:13.511Z,23.5
2023-10-11T15:18:27.750Z,23.4
2023-10-11T15:19:41.989Z,23.4
2023-10-11T15:20:56.227Z,23.4
2023-10-11T15:22:10.465Z,23.3
2023-10-11T15:23:24.704Z,23.3
2023-10-11T15:24:38.943Z,23.3
2023-10-11T15:25:53.181Z,23.3
2023-10-11T15:27:07.420Z,23.3
2023-10-11T15:28:21.659Z,23.2
2023-10-11T15:29:35.884Z,23.2
2023-10-11T15:30:49.152Z,23.2
2023-10-11T15:32:03.391Z,23.2
2023-10-11T15:33:17.629Z,23.2
2023-10-11T15:34:31.867Z,23.2
2023-10-11T15:35:46.106Z,23.2
2023-10-11T15:37:00.345Z,23.1
2023-10-11T15:38:14.583Z,23.1
2023-10-11T15:40:43.060Z,23.1
2023-10-11T15:41:57.298Z,23
2023-10-11T15:43:11.537Z,23
2023-10-11T15:44:25.775Z,23
2023-10-11T15:45:40.014Z,23
2023-10-11T15:46:53.269Z,23
2023-10-11T15:48:07.507Z,23
2023-10-11T15:49:21.746Z,22.9
2023-10-11T15:50:35.984Z,22.9
2023-10-11T15:51:50.223Z,22.9
2023-10-11T15:53:04.461Z,22.9
2023-10-11T15:54:18.700Z,22.9
2023-10-11T15:55:32.938Z,22.8
2023-10-11T15:56:47.177Z,22.8
2023-10-11T15:58:01.415Z,22.8
2023-10-11T15:59:15.654Z,22.8
2023-10-11T16:00:29.892Z,22.7
2023-10-11T16:01:44.131Z,22.7
2023-10-11T16:02:57.386Z,22.7
2023-10-11T16:04:11.624Z,22.7
2023-10-11T16:05:25.862Z,22.6
2023-10-11T16:06:40.101Z,22.6
2023-10-11T16:07:54.340Z,22.6
2023-10-11T16:09:08.578Z,22.6
2023-10-11T16:10:22.816Z,22.6
2023-10-11T16:11:37.055Z,22.6
2023-10-11T16:12:51.293Z,22.6
2023-10-11T16:14:05.532Z,22.6
2023-10-11T16:15:19.770Z,22.6
2023-10-11T16:16:34.009Z,22.6
2023-10-11T16:17:48.248Z,22.5
2023-10-11T16:19:01.502Z,22.5
2023-10-11T16:20:15.741Z,22.4
2023-10-11T16:21:29.979Z,22.4
2023-10-11T16:22:44.218Z,22.4
2023-10-11T16:23:58.456Z,22.3
2023-10-11T16:25:12.695Z,22.2
2023-10-11T16:26:26.933Z,22.1
2023-10-11T16:27:41.171Z,22.1
2023-10-11T16:28:55.410Z,22.1
2023-10-11T16:30:09.649Z,22
2023-10-11T16:31:23.887Z,22
2023-10-11T16:32:38.126Z,22
2023-10-11T16:33:52.364Z,21.9
2023-10-11T16:35:05.619Z,21.9
2023-10-11T16:36:19.844Z,21.9
2023-10-11T16:37:34.096Z,21.9